logo
App data

Fate Tectonics

Build up a world piece-by-piece using the power of the god-like Fates, while keeping them happy enough to avoid world-shattering temper tantrums!
Store | Hub | SteamDB
Developer: Golden Gear Games Publisher: Toy Temp
Genre: Indie, Simulation, Strategy
Languages: English
Tags: Strategy (47), Indie (46), Simulation (45), God Game (31), Pixel Graphics (30), Puzzle (24), Anime (24), 2D (6)
Category: Single-player, Steam Achievements, Full controller support, Steam Trading Cards, Steam Cloud
Release date: Sep 9, 2015
Price: $9.99
Score rank: 41% Userscore: 75% Old userscore: 76%
Owners: 0 .. 20,000
Followers: 905
Peak concurrent players yesterday: 1
Playtime total: 03:40 (average) 04:06 (median)

Steam Spy is still in beta, so expect major bugs.

Owners data:

Access restricted.

This feature is only available to users with special access rights. Sorry.

If you want to proceed, you need to register or log in first and then back Steam Spy on Patreon. Look for Indie or Pro pledge.

Don't forget to use the same email as on Steam Spy!

Audience in 2 weeks:

Access restricted.

This feature is only available to users with special access rights. Sorry.

If you want to proceed, you need to register or log in first and then back Steam Spy on Patreon. Look for Indie or Pro pledge.

Don't forget to use the same email as on Steam Spy!

Peak daily concurrent players:

CCU data courtesy of SteamDB. Used with permission.

Hourly concurrent players:

Daily Twitch stats:

Hourly Twitch stats:

YouTube:

The views data is based on top 50 videos uploaded last week. Actual number of views might be more than the number shown.

The displayed number of videos uploaded yesterday is limited to 50, so if there were more videos uploaded, the number will still show 50.

If the game has commonly used word as its name (like "FEAR" or "Volume") its number of Youtube views might be wrong.

Games similar to this one:

# Game Release date
Price
Score rank
(Userscore / Metascore)
Owners
Players
Playtime (Median)
1 Night Blights Apr 15, 2016 $6.99100% (100%)0 .. 20,0000%00:00 (00:00)
2 Carrie's Order Up! Sep 13, 2016 $2.9999% (98%)0 .. 20,0000%00:00 (00:00)
3 Luxor Evolved Mar 1, 2012 $9.9997% (97%)50,000 .. 100,0000%00:00 (00:00)
4 Hustle Cat Mar 16, 2016 $19.9995% (96%)20,000 .. 50,0000%00:00 (00:00)
5 A Good Snowman Is Hard To Build Feb 25, 2015 $9.9993% (95%)20,000 .. 50,0000%00:00 (00:00)
6 Beat Da Beat Mar 10, 2016 $1.9993% (95%)0 .. 20,0000%00:00 (00:00)
7 Chip's Challenge 2 May 28, 2015 $2.4990% (94%)20,000 .. 50,0000%00:00 (00:00)
8 [the Sequence] Mar 30, 2016 $1.9987% (93%)0 .. 20,0000%00:00 (00:00)
9 12 Labours of Hercules Mar 23, 2015 $2.9987% (93%)100,000 .. 200,0000.81%01:12 (01:12)
10 Girls Like Robots Feb 14, 2014 $6.99N/A (N/A)100,000 .. 200,0000%00:00 (00:00)
11 Tennis in the Face Nov 18, 2015 $4.9987% (93%)0 .. 20,0000%00:00 (00:00)
12 Swapperoo Dec 18, 2015 $4.99N/A (N/A)0 .. 20,0000%00:00 (00:00)
13 SquareCells Dec 7, 2015 $2.9983% (92%)20,000 .. 50,0001.69%00:28 (00:09)
14 Griptape Backbone May 5, 2017 Free83% (92%)0 .. 20,0000%00:00 (00:00)
15 Earthtongue Apr 27, 2015 $4.9983% (92%)20,000 .. 50,0000%00:00 (00:00)
16 Tribloos 2 Jan 30, 2014 $4.9980% (91%)100,000 .. 200,0000.25%00:08 (00:02)
17 Think To Die 3 Mar 27, 2017 $4.99N/A (N/A)0 .. 20,0000%00:00 (00:00)
18 Grapple Mar 9, 2015 $6.9980% (91%)20,000 .. 50,0000%00:00 (00:00)
19 The Jackbox Party Pack Nov 26, 2014 $24.9980% (91%)200,000 .. 500,0003.45%01:50 (01:11)
20 On Rusty Trails Jun 13, 2016 $12.9977% (90%/77%)50,000 .. 100,0001.18%00:10 (00:06)
21 Frog Climbers Oct 6, 2016 $6.9977% (90%)20,000 .. 50,0000%00:00 (00:00)
22 Without Within 2 Nov 9, 2015 $4.9974% (89%)0 .. 20,00031.25%04:06 (05:22)
23 Forgotten, Not Lost - A Kinetic Novel Apr 2, 2016 $1.9974% (89%)50,000 .. 100,0000%00:00 (00:00)
24 This Starry Midnight We Make Jun 1, 2015 $9.99N/A (N/A)0 .. 20,0000%00:00 (00:00)
25 Clock Simulator Jul 20, 2016 $0.9974% (89%)20,000 .. 50,0002%05:33 (01:51)
26 Recursion Deluxe Feb 12, 2016 $4.9974% (89%)0 .. 20,0000%00:00 (00:00)
27 The Reject Demon: Toko Chapter 0 — Prelude May 9, 2015 $4.9974% (89%)20,000 .. 50,0000%00:00 (00:00)
28 12 Labours of Hercules IV: Mother Nature (Platinum Edition) Dec 25, 2015 $2.9974% (89%)20,000 .. 50,0000.88%00:37 (00:12)
29 Koala Kids Jun 22, 2015 $1.9974% (89%)20,000 .. 50,0000%00:00 (00:00)
30 12 Labours of Hercules V: Kids of Hellas (Platinum Edition) Jun 17, 2016 $2.9974% (89%)20,000 .. 50,0002.35%00:54 (00:18)
31 Army of Pixels Oct 29, 2015 $4.99N/A (N/A)0 .. 20,0000%00:00 (00:00)
32 Oozi: Earth Adventure Dec 5, 2013 $4.9968% (87%/66%)50,000 .. 100,0000%00:00 (00:00)
33 Bob Was Hungry Aug 19, 2015 $9.9968% (87%)50,000 .. 100,0000%00:00 (00:00)
34 Thrillville: Off the Rails Jul 8, 2009 $9.9968% (87%/70%)20,000 .. 50,0000%00:00 (00:00)
35 Vampires: Guide Them to Safety! Oct 22, 2014 $4.99N/A (N/A)0 .. 20,0000%00:00 (00:00)
36 Loot Hound Nov 17, 2015 $2.9968% (87%)0 .. 20,0000%00:00 (00:00)
37 Sophie's Curse Mar 16, 2016 $4.9966% (86%)50,000 .. 100,0000%00:00 (00:00)
38 Anode Oct 5, 2015 $3.9966% (86%)20,000 .. 50,0000%00:00 (00:00)
39 Asphyxia Aug 4, 2015 $5.9966% (86%)20,000 .. 50,0000%00:00 (00:00)
40 Alpha Runner Sep 2, 2015 $0.9966% (86%)100,000 .. 200,0000.46%00:01 (00:00)
41 In Between Aug 21, 2015 $8.9966% (86%/68%)50,000 .. 100,0001.8%223:11 (111:38)
42 Cursed Sight Aug 3, 2015 $5.9966% (86%)0 .. 20,00019.23%04:13 (05:39)
43 Psycho Starship Rampage Sep 28, 2015 $9.9963% (85%)0 .. 20,0000%00:00 (00:00)
44 Magma Tsunami Jun 1, 2016 $0.9963% (85%)100,000 .. 200,0000%00:00 (00:00)
45 Sentinel 4: Dark Star Aug 13, 2015 $6.99N/A (N/A)0 .. 20,0005.88%03:07 (01:02)
46 Darkarta: A Broken Heart's Quest Collector's Edition Mar 8, 2017 $9.9963% (85%)20,000 .. 50,0002.08%04:56 (01:38)
47 Job the Leprechaun Jul 31, 2015 $0.7460% (84%)20,000 .. 50,0000%00:00 (00:00)
48 BAD END Nov 25, 2015 $1.9960% (84%)0 .. 20,0000%00:00 (00:00)
49 RePete Nov 1, 2015 $1.99N/A (N/A)0 .. 20,0000%00:00 (00:00)
50 Dead Man's Draw Feb 6, 2014 $6.9960% (84%)20,000 .. 50,0000%00:00 (00:00)
51 Governor of Poker 2 - Premium Edition Oct 11, 2010 $14.9960% (84%)20,000 .. 50,0000%00:00 (00:00)
52 Collisions Jul 28, 2015 $3.9958% (83%)50,000 .. 100,0002.2%00:01 (00:00)
53 Cyto Jul 10, 2014 $3.99N/A (N/A)20,000 .. 50,0000%00:00 (00:00)
54 Cute Things Dying Violently Sep 2, 2015 $2.9958% (83%)0 .. 20,0000%00:00 (00:00)
55 Gridworld Dec 29, 2015 $0.9958% (83%)0 .. 20,0000%00:00 (00:00)
56 Steam and Metal Feb 9, 2015 $0.7455% (82%)0 .. 20,0000%00:00 (00:00)
57 Stay Alight Mar 2, 2015 $3.9953% (81%)20,000 .. 50,0000%00:00 (00:00)
58 Egg Returns Home May 5, 2015 $0.9951% (80%)20,000 .. 50,0000%00:00 (00:00)
59 Optika Aug 26, 2016 $4.9951% (80%)20,000 .. 50,0000%00:00 (00:00)
60 Dungeon Painter Studio Feb 26, 2017 $14.9951% (80%)20,000 .. 50,0008.57%00:37 (00:26)
61 Space Drifters 2D Mar 28, 2016 $0.99N/A (N/A)20,000 .. 50,0000%00:00 (00:00)
62 Archimedes Oct 6, 2016 $2.9949% (79%)100,000 .. 200,0000%00:00 (00:00)
63 Terraform May 8, 2015 $2.99N/A (N/A)0 .. 20,0000%00:00 (00:00)
64 Star Sky - ブルームーン Oct 23, 2015 $3.9949% (79%)0 .. 20,0000%00:00 (00:00)
65 The Last NightMary - A Lenda do Cabeça de Cuia Nov 2, 2015 $3.9949% (79%)50,000 .. 100,0000%00:00 (00:00)
66 GamersGoMakers Aug 8, 2014 $9.9949% (79%)0 .. 20,0000%00:00 (00:00)
67 Particulars Nov 19, 2014 $5.9947% (78%/74%)20,000 .. 50,0000%00:00 (00:00)
68 Air Missions: HIND Mar 21, 2016 $16.9947% (78%)0 .. 20,0000%00:00 (00:00)
69 The Survey Oct 27, 2016 $0.9947% (78%)0 .. 20,0000%00:00 (00:00)
70 Farm for your Life Jun 16, 2014 $9.9947% (78%)50,000 .. 100,0000%00:00 (00:00)
71 Beeftacular Aug 26, 2016 $2.9945% (77%)0 .. 20,0000%00:00 (00:00)
72 SinaRun Oct 26, 2015 $2.9945% (77%)20,000 .. 50,0000%00:00 (00:00)
73 Pixel Puzzles 2: Birds Feb 20, 2015 $9.9945% (77%)200,000 .. 500,0000.4%01:34 (00:33)
74 Paranormal State: Poison Spring Apr 9, 2014 $9.9945% (77%)50,000 .. 100,0000%00:00 (00:00)
75 hackmud Sep 22, 2016 $19.9943% (76%)20,000 .. 50,0004.17%00:07 (00:02)
76 ConflictCraft Dec 8, 2016 $2.99N/A (N/A)20,000 .. 50,0000.93%00:29 (00:09)
77 Rescue Team 5 Sep 30, 2015 $3.9943% (76%)20,000 .. 50,0000%00:00 (00:00)
78 Where are my Internets? Dec 16, 2016 $2.9943% (76%)20,000 .. 50,0000%00:00 (00:00)
79 The Deletion Jul 30, 2015 $1.9941% (75%)20,000 .. 50,0000%00:00 (00:00)
80 Kombine Oct 14, 2016 $0.4941% (75%)20,000 .. 50,0000%00:00 (00:00)
81 MOAI 2: Path to Another World Apr 11, 2015 $7.99N/A (N/A)0 .. 20,0000%00:00 (00:00)
82 Neon Prism Nov 18, 2016 $4.9939% (74%)50,000 .. 100,0001.55%01:10 (01:07)
83 Idle Evolution Apr 3, 2017 $4.9937% (73%)0 .. 20,0007.69%00:42 (00:14)
84 GO AWAY, THERE'S KUMIS OVER THERE! Oct 28, 2016 $0.9937% (73%)50,000 .. 100,0000%00:00 (00:00)
85 Turbo Pug 3D Sep 20, 2016 $1.9936% (72%)200,000 .. 500,0000.09%01:07 (00:22)
86 Laserlife Sep 22, 2015 $9.9936% (72%)0 .. 20,0000%00:00 (00:00)
87 Axel & Pixel Oct 6, 2010 $4.99N/A (N/A)20,000 .. 50,0000%00:00 (00:00)
88 Wanda - A Beautiful Apocalypse Jun 3, 2016 $1.9932% (70%)100,000 .. 200,0000.47%01:02 (00:20)
89 Zipple World Jan 19, 2016 $4.99N/A (N/A)0 .. 20,0000%00:00 (00:00)
90 Western FPS Mar 13, 2017 $0.9931% (69%)200,000 .. 500,0000.23%03:09 (01:03)
91 Pester Jan 25, 2013 $0.9929% (68%)100,000 .. 200,0000%00:00 (00:00)
92 Love in the Glen Jun 9, 2016 $5.99N/A (N/A)20,000 .. 50,0000%00:00 (00:00)
93 Sinister City Oct 18, 2014 $0.9929% (68%)100,000 .. 200,0000%00:00 (00:00)
94 Mind Games Mar 4, 2016 $2.9928% (67%)0 .. 20,0000%00:00 (00:00)
95 One Last Chance Apr 7, 2016 $3.9928% (67%)20,000 .. 50,0004.35%03:08 (02:26)
96 Totally Unbalanced Jul 29, 2016 $2.9928% (67%)0 .. 20,0000%00:00 (00:00)
97 1931: Scheherazade at the Library of Pergamum Mar 26, 2015 $14.9926% (66%)0 .. 20,0000%00:00 (00:00)
98 Lift It Jan 20, 2017 $4.9926% (66%)50,000 .. 100,0000.54%01:59 (00:39)
99 Caravanserail Feb 26, 2016 $2.99N/A (N/A)0 .. 20,0000%00:00 (00:00)
100 Herding Dog Dec 25, 2015 $2.99N/A (N/A)0 .. 20,0000%00:00 (00:00)
101 Broken Dreams Feb 19, 2016 $0.4926% (66%)200,000 .. 500,0000.32%01:18 (01:00)
102 Highborn Feb 19, 2013 $1.99N/A (N/A)0 .. 20,0000%00:00 (00:00)
103 XCavalypse Jun 6, 2016 $5.99N/A (N/A)0 .. 20,00011.11%00:56 (00:18)
104 Marble Duel Nov 12, 2015 $4.9923% (63%)50,000 .. 100,0000%00:00 (00:00)
105 Power of Love Jul 21, 2015 $0.9922% (62%)20,000 .. 50,0000%00:00 (00:00)
106 Winexy Jan 13, 2017 $0.9920% (61%)50,000 .. 100,0000%00:00 (00:00)
107 Goodnight Butcher Dec 18, 2015 $1.99N/A (N/A)20,000 .. 50,0001.59%334:53 (111:37)
108 Won't You Be My Laser? Sep 2, 2016 $0.99N/A (N/A)0 .. 20,0000%00:00 (00:00)
109 Football Blitz Jan 4, 2017 $2.99N/A (N/A)0 .. 20,0001.18%00:02 (00:00)
110 Star Chronicles: Delta Quadrant Jul 7, 2015 $0.9918% (59%)200,000 .. 500,0000.18%05:17 (02:30)
111 FBI MANIA Jan 31, 2017 $0.9917% (58%)100,000 .. 200,0004.17%04:21 (04:38)
112 Wildlife Park 2 - Dino World Mar 30, 2012 $3.9916% (57%)20,000 .. 50,0005.56%07:34 (02:31)
113 Way of Gold and Steel Aug 17, 2015 $8.9915% (56%)20,000 .. 50,0000%00:00 (00:00)
114 Color Syndrome Jun 20, 2016 $0.9915% (56%)20,000 .. 50,0000.58%05:22 (01:47)
115 Bloop Reloaded Feb 6, 2015 $9.9915% (56%)100,000 .. 200,0000.23%00:48 (00:16)
116 Bunny & Piggy Dec 1, 2016 $0.9914% (55%)20,000 .. 50,0000.65%04:22 (01:27)
117 Dance Magic Feb 15, 2016 $9.99N/A (N/A)0 .. 20,0000%00:00 (00:00)
118 Drizzlepath Mar 12, 2015 $2.9914% (54%)0 .. 20,0000%00:00 (00:00)
119 Backgammon Blitz Nov 12, 2015 $3.9914% (54%)0 .. 20,0000%00:00 (00:00)
120 Sky to Fly: Soulless Leviathan Jul 22, 2016 $3.9913% (53%)0 .. 20,0000%00:00 (00:00)
121 Reptilian Rebellion Aug 8, 2016 $0.9913% (53%)20,000 .. 50,0000%00:00 (00:00)
122 Quantum Rush Champions Dec 4, 2014 $2.9912% (51%)20,000 .. 50,0000%00:00 (00:00)
123 Rage Runner May 16, 2014 $4.99N/A (N/A)0 .. 20,0000%00:00 (00:00)
124 Autumn Sep 23, 2014 $2.9911% (50%)50,000 .. 100,0000%00:00 (00:00)
125 King's Guard TD Jun 8, 2016 $2.9910% (49%)100,000 .. 200,0000.28%00:01 (00:00)
126 Ninja Stealth 2 Jan 30, 2017 $0.4910% (49%)20,000 .. 50,0000.97%00:03 (00:01)
127 Racecraft Mar 4, 2016 Free9% (47%)0 .. 20,0000%00:00 (00:00)
128 Astro Emporia Feb 2, 2015 $0.999% (47%)20,000 .. 50,0000%00:00 (00:00)
129 Melting Hearts: Our Love Will Grow 2 Apr 29, 2016 N/A8% (45%)20,000 .. 50,0000%00:00 (00:00)
130 iREC Jan 16, 2017 Free8% (44%)20,000 .. 50,0000%00:00 (00:00)
131 European Ship Simulator Nov 4, 2016 $19.995% (38%)50,000 .. 100,0000%00:00 (00:00)
132 Hide and Secret Treasure of the Ages Mar 15, 2007 $2.99N/A (N/A)0 .. 20,0000%00:00 (00:00)
133 Streets of Chaos Jan 23, 2015 N/A5% (36%)100,000 .. 200,0000.39%04:22 (01:37)
134 Space Hotel Jan 4, 2017 $1.994% (34%)0 .. 20,0000%00:00 (00:00)
135 Industry Transporters Aug 31, 2015 $9.99N/A (N/A)0 .. 20,0000%00:00 (00:00)
136 Burst Mar 14, 2016 $1.99N/A (N/A)100,000 .. 200,0000%00:00 (00:00)
137 Labyrinth Simulator Sep 21, 2015 $4.993% (31%)0 .. 20,0000%00:00 (00:00)
138 Robot vs Birds Zombies Jun 1, 2013 $0.993% (31%)0 .. 20,0000%00:00 (00:00)
139 Hyposphere May 5, 2016 $2.992% (24%)200,000 .. 500,0000.18%00:03 (00:01)
140 Cyber Team Manager Jan 8, 2016 $4.992% (20%)0 .. 20,0000%00:00 (00:00)
141 One way to exit Mar 12, 2016 $1.99N/A (N/A)200,000 .. 500,0000.18%03:53 (01:17)

Tags over time:

Access restricted.

This feature is only available to users with special access rights. Sorry.

If you want to proceed, you need to register or log in first and then back Steam Spy on Patreon. Look for Indie or Pro pledge.

Don't forget to use the same email as on Steam Spy!

Owners of this game also own:

Access restricted.

This feature is only available to users with special access rights. Sorry.

If you want to proceed, you need to register or log in first and then back Steam Spy on Patreon. Look for Indie or Pro pledge.

Don't forget to use the same email as on Steam Spy!

Playtime distribution:

Access restricted.

This feature is only available to users with special access rights. Sorry.

If you want to proceed, you need to register or log in first and then back Steam Spy on Patreon. Look for Indie or Pro pledge.

Don't forget to use the same email as on Steam Spy!

Playtime (2 weeks):

Access restricted.

This feature is only available to users with special access rights. Sorry.

If you want to proceed, you need to register or log in first and then back Steam Spy on Patreon. Look for Indie or Pro pledge.

Don't forget to use the same email as on Steam Spy!

User reviews:

Login required.

Please register or log in to see this information.